sensor_id;sensor_type;location;lat;lon;timestamp;temperature;humidity
7588;DHT22;3835;48.850;8.938;2023-09-19T00:00:20;16.00;99.90
7588;DHT22;3835;48.850;8.938;2023-09-19T00:02:52;16.00;99.90
7588;DHT22;3835;48.850;8.938;2023-09-19T00:05:19;16.00;99.90
7588;DHT22;3835;48.850;8.938;2023-09-19T00:07:51;15.90;99.90
7588;DHT22;3835;48.850;8.938;2023-09-19T00:10:20;15.90;99.90
7588;DHT22;3835;48.850;8.938;2023-09-19T00:12:55;15.90;99.90
7588;DHT22;3835;48.850;8.938;2023-09-19T00:15:27;15.90;99.90
7588;DHT22;3835;48.850;8.938;2023-09-19T00:17:57;15.90;99.90
7588;DHT22;3835;48.850;8.938;2023-09-19T00:20:24;15.80;99.90
7588;DHT22;3835;48.850;8.938;2023-09-19T00:22:51;15.80;99.90
7588;DHT22;3835;48.850;8.938;2023-09-19T00:25:19;15.80;99.90
7588;DHT22;3835;48.850;8.938;2023-09-19T00:27:46;15.80;99.90
7588;DHT22;3835;48.850;8.938;2023-09-19T00:30:18;15.70;99.90
7588;DHT22;3835;48.850;8.938;2023-09-19T00:32:50;15.70;99.90
7588;DHT22;3835;48.850;8.938;2023-09-19T00:35:20;15.70;99.90
7588;DHT22;3835;48.850;8.938;2023-09-19T00:37:49;15.60;99.90
7588;DHT22;3835;48.850;8.938;2023-09-19T00:40:16;15.60;99.90
7588;DHT22;3835;48.850;8.938;2023-09-19T00:42:43;15.60;99.90
7588;DHT22;3835;48.850;8.938;2023-09-19T00:45:11;15.60;99.90
7588;DHT22;3835;48.850;8.938;2023-09-19T00:47:42;15.60;99.90
7588;DHT22;3835;48.850;8.938;2023-09-19T00:50:10;15.60;99.90
7588;DHT22;3835;48.850;8.938;2023-09-19T00:52:40;15.60;99.90
7588;DHT22;3835;48.850;8.938;2023-09-19T00:55:09;15.60;99.90
7588;DHT22;3835;48.850;8.938;2023-09-19T00:57:37;15.60;99.90
7588;DHT22;3835;48.850;8.938;2023-09-19T01:00:05;15.60;99.90
7588;DHT22;3835;48.850;8.938;2023-09-19T01:02:34;15.60;99.90
7588;DHT22;3835;48.850;8.938;2023-09-19T01:05:02;15.60;99.90
7588;DHT22;3835;48.850;8.938;2023-09-19T01:07:32;15.50;99.90
7588;DHT22;3835;48.850;8.938;2023-09-19T01:10:00;15.60;99.90
7588;DHT22;3835;48.850;8.938;2023-09-19T01:12:33;15.50;99.90
7588;DHT22;3835;48.850;8.938;2023-09-19T01:15:13;15.50;99.90
7588;DHT22;3835;48.850;8.938;2023-09-19T01:17:47;15.50;99.90
7588;DHT22;3835;48.850;8.938;2023-09-19T01:20:25;15.40;99.90
7588;DHT22;3835;48.850;8.938;2023-09-19T01:23:01;15.40;99.90
7588;DHT22;3835;48.850;8.938;2023-09-19T01:26:03;15.30;99.90
7588;DHT22;3835;48.850;8.938;2023-09-19T01:28:43;15.30;99.90
7588;DHT22;3835;48.850;8.938;2023-09-19T01:31:14;15.30;99.90
7588;DHT22;3835;48.850;8.938;2023-09-19T01:33:55;15.20;99.90
7588;DHT22;3835;48.850;8.938;2023-09-19T01:36:28;15.10;99.90
7588;DHT22;3835;48.850;8.938;2023-09-19T01:38:56;15.10;99.90
7588;DHT22;3835;48.850;8.938;2023-09-19T01:41:29;15.10;99.90
7588;DHT22;3835;48.850;8.938;2023-09-19T01:44:00;15.00;99.90
7588;DHT22;3835;48.850;8.938;2023-09-19T01:46:34;15.00;99.90
7588;DHT22;3835;48.850;8.938;2023-09-19T01:49:15;14.90;99.90
7588;DHT22;3835;48.850;8.938;2023-09-19T01:51:52;14.90;99.90
7588;DHT22;3835;48.850;8.938;2023-09-19T01:54:26;14.90;99.90
7588;DHT22;3835;48.850;8.938;2023-09-19T01:56:59;14.80;99.90
7588;DHT22;3835;48.850;8.938;2023-09-19T01:59:35;14.80;99.90
7588;DHT22;3835;48.850;8.938;2023-09-19T02:02:06;14.80;99.90
7588;DHT22;3835;48.850;8.938;2023-09-19T02:04:34;14.80;99.90
7588;DHT22;3835;48.850;8.938;2023-09-19T02:07:01;14.80;99.90
7588;DHT22;3835;48.850;8.938;2023-09-19T02:09:31;14.70;99.90
7588;DHT22;3835;48.850;8.938;2023-09-19T02:11:58;14.70;99.90
7588;DHT22;3835;48.850;8.938;2023-09-19T02:14:26;14.70;99.90
7588;DHT22;3835;48.850;8.938;2023-09-19T02:16:55;14.60;99.90
7588;DHT22;3835;48.850;8.938;2023-09-19T02:19:23;14.60;99.90
7588;DHT22;3835;48.850;8.938;2023-09-19T02:21:50;14.70;99.90
7588;DHT22;3835;48.850;8.938;2023-09-19T02:24:16;14.70;99.90
7588;DHT22;3835;48.850;8.938;2023-09-19T02:26:44;14.70;99.90
7588;DHT22;3835;48.850;8.938;2023-09-19T02:29:11;14.70;99.90
7588;DHT22;3835;48.850;8.938;2023-09-19T02:31:38;14.70;99.90
7588;DHT22;3835;48.850;8.938;2023-09-19T02:34:08;14.70;99.90
7588;DHT22;3835;48.850;8.938;2023-09-19T02:36:37;14.70;99.90
7588;DHT22;3835;48.850;8.938;2023-09-19T02:39:04;14.80;99.90
7588;DHT22;3835;48.850;8.938;2023-09-19T02:41:33;14.80;99.90
7588;DHT22;3835;48.850;8.938;2023-09-19T02:44:00;14.70;99.90
7588;DHT22;3835;48.850;8.938;2023-09-19T02:46:27;14.70;99.90
7588;DHT22;3835;48.850;8.938;2023-09-19T02:48:54;14.80;99.90
7588;DHT22;3835;48.850;8.938;2023-09-19T02:51:21;14.80;99.90
7588;DHT22;3835;48.850;8.938;2023-09-19T02:53:50;14.80;99.90
7588;DHT22;3835;48.850;8.938;2023-09-19T02:56:18;14.80;99.90
7588;DHT22;3835;48.850;8.938;2023-09-19T02:58:44;14.80;99.90
7588;DHT22;3835;48.850;8.938;2023-09-19T03:01:11;14.80;99.90
7588;DHT22;3835;48.850;8.938;2023-09-19T03:03:38;14.90;99.90
7588;DHT22;3835;48.850;8.938;2023-09-19T03:06:06;14.90;99.90
7588;DHT22;3835;48.850;8.938;2023-09-19T03:08:34;14.90;99.90
7588;DHT22;3835;48.850;8.938;2023-09-19T03:11:04;14.90;99.90
7588;DHT22;3835;48.850;8.938;2023-09-19T03:13:34;15.00;99.90
7588;DHT22;3835;48.850;8.938;2023-09-19T03:16:02;15.00;99.90
7588;DHT22;3835;48.850;8.938;2023-09-19T03:18:31;15.00;99.90
7588;DHT22;3835;48.850;8.938;2023-09-19T03:20:58;15.00;99.90
7588;DHT22;3835;48.850;8.938;2023-09-19T03:23:26;15.10;99.90
7588;DHT22;3835;48.850;8.938;2023-09-19T03:25:53;15.00;99.90
7588;DHT22;3835;48.850;8.938;2023-09-19T03:28:21;15.00;99.90
7588;DHT22;3835;48.850;8.938;2023-09-19T03:30:58;15.00;99.90
7588;DHT22;3835;48.850;8.938;2023-09-19T03:33:25;15.00;99.90
7588;DHT22;3835;48.850;8.938;2023-09-19T03:35:52;15.00;99.90
7588;DHT22;3835;48.850;8.938;2023-09-19T03:38:20;15.00;99.90
7588;DHT22;3835;48.850;8.938;2023-09-19T03:40:47;15.00;99.90
7588;DHT22;3835;48.850;8.938;2023-09-19T03:43:14;15.00;99.90
7588;DHT22;3835;48.850;8.938;2023-09-19T03:45:42;14.90;99.90
7588;DHT22;3835;48.850;8.938;2023-09-19T03:48:09;14.90;99.90
7588;DHT22;3835;48.850;8.938;2023-09-19T03:50:36;14.90;99.90
7588;DHT22;3835;48.850;8.938;2023-09-19T03:53:03;14.90;99.90
7588;DHT22;3835;48.850;8.938;2023-09-19T03:55:30;14.90;99.90
7588;DHT22;3835;48.850;8.938;2023-09-19T03:57:57;14.90;99.90
7588;DHT22;3835;48.850;8.938;2023-09-19T04:00:24;14.90;99.90
7588;DHT22;3835;48.850;8.938;2023-09-19T04:02:53;14.90;99.90
7588;DHT22;3835;48.850;8.938;2023-09-19T04:05:21;14.90;99.90
7588;DHT22;3835;48.850;8.938;2023-09-19T04:07:48;14.90;99.90
7588;DHT22;3835;48.850;8.938;2023-09-19T04:10:15;14.90;99.90
7588;DHT22;3835;48.850;8.938;2023-09-19T04:12:50;14.90;99.90
7588;DHT22;3835;48.850;8.938;2023-09-19T04:15:17;15.00;99.90
7588;DHT22;3835;48.850;8.938;2023-09-19T04:17:44;15.00;99.90
7588;DHT22;3835;48.850;8.938;2023-09-19T04:20:12;15.00;99.90
7588;DHT22;3835;48.850;8.938;2023-09-19T04:22:39;15.00;99.90
7588;DHT22;3835;48.850;8.938;2023-09-19T04:25:06;15.00;99.90
7588;DHT22;3835;48.850;8.938;2023-09-19T04:27:33;15.10;99.90
7588;DHT22;3835;48.850;8.938;2023-09-19T04:30:00;15.10;99.90
7588;DHT22;3835;48.850;8.938;2023-09-19T04:32:35;15.00;99.90
7588;DHT22;3835;48.850;8.938;2023-09-19T04:35:05;15.10;99.90
7588;DHT22;3835;48.850;8.938;2023-09-19T04:37:38;15.10;99.90
7588;DHT22;3835;48.850;8.938;2023-09-19T04:40:07;15.00;99.90
7588;DHT22;3835;48.850;8.938;2023-09-19T04:42:39;15.00;99.90
7588;DHT22;3835;48.850;8.938;2023-09-19T04:45:07;15.00;99.90
7588;DHT22;3835;48.850;8.938;2023-09-19T04:47:35;15.00;99.90
7588;DHT22;3835;48.850;8.938;2023-09-19T04:50:06;15.00;99.90
7588;DHT22;3835;48.850;8.938;2023-09-19T04:52:39;15.00;99.90
7588;DHT22;3835;48.850;8.938;2023-09-19T04:55:08;15.00;99.90
7588;DHT22;3835;48.850;8.938;2023-09-19T04:57:35;15.00;99.90
7588;DHT22;3835;48.850;8.938;2023-09-19T05:00:03;15.00;99.90
7588;DHT22;3835;48.850;8.938;2023-09-19T05:02:37;15.10;99.90
7588;DHT22;3835;48.850;8.938;2023-09-19T05:05:05;15.10;99.90
7588;DHT22;3835;48.850;8.938;2023-09-19T05:07:33;15.10;99.90
7588;DHT22;3835;48.850;8.938;2023-09-19T05:10:02;15.00;99.90
7588;DHT22;3835;48.850;8.938;2023-09-19T05:12:31;15.00;99.90
7588;DHT22;3835;48.850;8.938;2023-09-19T05:14:58;15.00;99.90
7588;DHT22;3835;48.850;8.938;2023-09-19T05:17:25;14.90;99.90
7588;DHT22;3835;48.850;8.938;2023-09-19T05:19:51;14.90;99.90
7588;DHT22;3835;48.850;8.938;2023-09-19T05:22:18;14.80;99.90
7588;DHT22;3835;48.850;8.938;2023-09-19T05:24:45;14.80;99.90
7588;DHT22;3835;48.850;8.938;2023-09-19T05:27:14;14.80;99.90
7588;DHT22;3835;48.850;8.938;2023-09-19T05:29:42;14.80;99.90
7588;DHT22;3835;48.850;8.938;2023-09-19T05:32:09;14.80;99.90
7588;DHT22;3835;48.850;8.938;2023-09-19T05:34:37;14.70;99.90
7588;DHT22;3835;48.850;8.938;2023-09-19T05:37:03;14.80;99.90
7588;DHT22;3835;48.850;8.938;2023-09-19T05:39:30;14.80;99.90
7588;DHT22;3835;48.850;8.938;2023-09-19T05:41:57;14.80;99.90
7588;DHT22;3835;48.850;8.938;2023-09-19T05:44:26;14.80;99.90
7588;DHT22;3835;48.850;8.938;2023-09-19T05:46:53;14.70;99.90
7588;DHT22;3835;48.850;8.938;2023-09-19T05:49:22;14.70;99.90
7588;DHT22;3835;48.850;8.938;2023-09-19T05:51:50;14.70;99.90
7588;DHT22;3835;48.850;8.938;2023-09-19T05:54:19;14.70;99.90
7588;DHT22;3835;48.850;8.938;2023-09-19T05:56:46;14.70;99.90
7588;DHT22;3835;48.850;8.938;2023-09-19T05:59:18;14.70;99.90
7588;DHT22;3835;48.850;8.938;2023-09-19T06:01:46;14.80;99.90
7588;DHT22;3835;48.850;8.938;2023-09-19T06:04:13;14.70;99.90
7588;DHT22;3835;48.850;8.938;2023-09-19T06:06:40;14.80;99.90
7588;DHT22;3835;48.850;8.938;2023-09-19T06:09:07;14.80;99.90
7588;DHT22;3835;48.850;8.938;2023-09-19T06:11:34;14.90;99.90
7588;DHT22;3835;48.850;8.938;2023-09-19T06:14:01;14.90;99.90
7588;DHT22;3835;48.850;8.938;2023-09-19T06:16:28;15.00;99.90
7588;DHT22;3835;48.850;8.938;2023-09-19T06:18:56;15.20;99.90
7588;DHT22;3835;48.850;8.938;2023-09-19T06:21:25;15.20;99.90
7588;DHT22;3835;48.850;8.938;2023-09-19T06:23:52;15.30;99.90
7588;DHT22;3835;48.850;8.938;2023-09-19T06:26:19;15.40;99.90
7588;DHT22;3835;48.850;8.938;2023-09-19T06:28:46;15.50;99.90
7588;DHT22;3835;48.850;8.938;2023-09-19T06:31:12;15.60;99.90
7588;DHT22;3835;48.850;8.938;2023-09-19T06:33:39;15.60;99.90
7588;DHT22;3835;48.850;8.938;2023-09-19T06:36:07;15.70;99.90
7588;DHT22;3835;48.850;8.938;2023-09-19T06:38:34;15.70;99.90
7588;DHT22;3835;48.850;8.938;2023-09-19T06:41:02;15.70;99.90
7588;DHT22;3835;48.850;8.938;2023-09-19T06:43:36;15.80;99.90
7588;DHT22;3835;48.850;8.938;2023-09-19T06:46:04;15.90;99.90
7588;DHT22;3835;48.850;8.938;2023-09-19T06:48:32;15.90;99.90
7588;DHT22;3835;48.850;8.938;2023-09-19T06:51:00;16.00;99.90
7588;DHT22;3835;48.850;8.938;2023-09-19T06:53:31;16.10;99.90
7588;DHT22;3835;48.850;8.938;2023-09-19T06:55:58;16.10;99.90
7588;DHT22;3835;48.850;8.938;2023-09-19T06:58:26;16.30;99.90
7588;DHT22;3835;48.850;8.938;2023-09-19T07:00:52;16.30;99.90
7588;DHT22;3835;48.850;8.938;2023-09-19T07:03:19;16.40;99.90
7588;DHT22;3835;48.850;8.938;2023-09-19T07:05:48;16.50;99.90
7588;DHT22;3835;48.850;8.938;2023-09-19T07:08:15;16.40;99.90
7588;DHT22;3835;48.850;8.938;2023-09-19T07:10:47;16.30;99.90
7588;DHT22;3835;48.850;8.938;2023-09-19T07:13:19;16.20;99.90
7588;DHT22;3835;48.850;8.938;2023-09-19T07:15:50;16.30;99.90
7588;DHT22;3835;48.850;8.938;2023-09-19T07:18:17;16.30;99.90
7588;DHT22;3835;48.850;8.938;2023-09-19T07:20:46;16.40;99.90
7588;DHT22;3835;48.850;8.938;2023-09-19T07:23:15;16.50;99.90
7588;DHT22;3835;48.850;8.938;2023-09-19T07:25:45;16.60;99.90
7588;DHT22;3835;48.850;8.938;2023-09-19T07:28:12;16.70;99.90
7588;DHT22;3835;48.850;8.938;2023-09-19T07:30:38;16.90;99.90
7588;DHT22;3835;48.850;8.938;2023-09-19T07:33:07;17.00;99.90
7588;DHT22;3835;48.850;8.938;2023-09-19T07:35:36;17.00;99.90
7588;DHT22;3835;48.850;8.938;2023-09-19T07:38:05;17.00;99.90
7588;DHT22;3835;48.850;8.938;2023-09-19T07:40:32;17.10;99.90
7588;DHT22;3835;48.850;8.938;2023-09-19T07:43:00;17.30;99.90
7588;DHT22;3835;48.850;8.938;2023-09-19T07:45:27;17.40;99.90
7588;DHT22;3835;48.850;8.938;2023-09-19T07:47:55;17.50;99.90
7588;DHT22;3835;48.850;8.938;2023-09-19T07:50:22;17.30;99.90
7588;DHT22;3835;48.850;8.938;2023-09-19T07:52:52;17.50;99.90
7588;DHT22;3835;48.850;8.938;2023-09-19T07:55:21;17.60;99.90
7588;DHT22;3835;48.850;8.938;2023-09-19T07:57:51;17.50;99.90
7588;DHT22;3835;48.850;8.938;2023-09-19T08:00:19;17.60;99.90
7588;DHT22;3835;48.850;8.938;2023-09-19T08:02:46;17.80;99.90
7588;DHT22;3835;48.850;8.938;2023-09-19T08:05:14;17.90;99.90
7588;DHT22;3835;48.850;8.938;2023-09-19T08:07:43;17.80;99.90
7588;DHT22;3835;48.850;8.938;2023-09-19T08:10:14;17.60;99.90
7588;DHT22;3835;48.850;8.938;2023-09-19T08:12:42;17.50;99.90
7588;DHT22;3835;48.850;8.938;2023-09-19T08:15:12;17.80;99.90
7588;DHT22;3835;48.850;8.938;2023-09-19T08:17:40;18.00;99.90
7588;DHT22;3835;48.850;8.938;2023-09-19T08:20:08;18.20;99.90
7588;DHT22;3835;48.850;8.938;2023-09-19T08:22:42;18.30;99.90
7588;DHT22;3835;48.850;8.938;2023-09-19T08:25:11;18.30;99.90
7588;DHT22;3835;48.850;8.938;2023-09-19T08:27:38;18.40;99.90
7588;DHT22;3835;48.850;8.938;2023-09-19T08:30:06;18.00;99.90
7588;DHT22;3835;48.850;8.938;2023-09-19T08:32:32;18.20;99.90
7588;DHT22;3835;48.850;8.938;2023-09-19T08:35:01;18.30;99.90
7588;DHT22;3835;48.850;8.938;2023-09-19T08:37:30;18.50;99.90
7588;DHT22;3835;48.850;8.938;2023-09-19T08:39:56;18.60;99.90
7588;DHT22;3835;48.850;8.938;2023-09-19T08:42:23;18.60;99.90
7588;DHT22;3835;48.850;8.938;2023-09-19T08:44:50;18.80;99.90
7588;DHT22;3835;48.850;8.938;2023-09-19T08:47:30;18.80;99.90
7588;DHT22;3835;48.850;8.938;2023-09-19T08:50:05;18.90;99.90
7588;DHT22;3835;48.850;8.938;2023-09-19T08:52:42;19.00;99.90
7588;DHT22;3835;48.850;8.938;2023-09-19T08:55:12;19.40;99.90
7588;DHT22;3835;48.850;8.938;2023-09-19T08:57:40;19.60;99.90
7588;DHT22;3835;48.850;8.938;2023-09-19T09:00:10;19.70;99.90
7588;DHT22;3835;48.850;8.938;2023-09-19T09:02:41;19.80;99.90
7588;DHT22;3835;48.850;8.938;2023-09-19T09:05:11;19.70;99.90
7588;DHT22;3835;48.850;8.938;2023-09-19T09:07:38;19.40;99.90
7588;DHT22;3835;48.850;8.938;2023-09-19T09:10:07;19.40;99.90
7588;DHT22;3835;48.850;8.938;2023-09-19T09:12:35;19.60;99.90
7588;DHT22;3835;48.850;8.938;2023-09-19T09:15:03;19.90;99.90
7588;DHT22;3835;48.850;8.938;2023-09-19T09:17:30;19.90;99.90
7588;DHT22;3835;48.850;8.938;2023-09-19T09:19:57;20.00;99.90
7588;DHT22;3835;48.850;8.938;2023-09-19T09:22:25;20.10;99.90
7588;DHT22;3835;48.850;8.938;2023-09-19T09:24:53;19.80;99.90
7588;DHT22;3835;48.850;8.938;2023-09-19T09:27:20;19.70;99.90
7588;DHT22;3835;48.850;8.938;2023-09-19T09:29:51;19.80;99.90
7588;DHT22;3835;48.850;8.938;2023-09-19T09:32:21;20.00;99.90
7588;DHT22;3835;48.850;8.938;2023-09-19T09:34:51;19.90;99.90
7588;DHT22;3835;48.850;8.938;2023-09-19T09:37:18;20.30;99.90
7588;DHT22;3835;48.850;8.938;2023-09-19T09:39:54;20.30;99.90
7588;DHT22;3835;48.850;8.938;2023-09-19T09:42:31;20.10;99.90
7588;DHT22;3835;48.850;8.938;2023-09-19T09:45:14;19.60;99.90
7588;DHT22;3835;48.850;8.938;2023-09-19T09:47:41;19.50;99.90
7588;DHT22;3835;48.850;8.938;2023-09-19T09:50:08;19.40;99.90
7588;DHT22;3835;48.850;8.938;2023-09-19T09:52:46;19.40;99.90
7588;DHT22;3835;48.850;8.938;2023-09-19T09:55:14;19.60;99.90
7588;DHT22;3835;48.850;8.938;2023-09-19T09:57:41;19.70;99.90
7588;DHT22;3835;48.850;8.938;2023-09-19T10:00:10;19.80;99.90
7588;DHT22;3835;48.850;8.938;2023-09-19T10:02:45;20.00;99.90
7588;DHT22;3835;48.850;8.938;2023-09-19T10:05:13;19.80;99.90
7588;DHT22;3835;48.850;8.938;2023-09-19T10:07:47;19.80;99.90
7588;DHT22;3835;48.850;8.938;2023-09-19T10:10:29;19.90;99.90
7588;DHT22;3835;48.850;8.938;2023-09-19T10:13:05;20.00;99.90
7588;DHT22;3835;48.850;8.938;2023-09-19T10:15:33;20.20;99.90
7588;DHT22;3835;48.850;8.938;2023-09-19T10:18:04;20.40;99.90
7588;DHT22;3835;48.850;8.938;2023-09-19T10:20:33;20.60;99.90
7588;DHT22;3835;48.850;8.938;2023-09-19T10:23:06;21.00;99.90
7588;DHT22;3835;48.850;8.938;2023-09-19T10:25:41;21.10;99.90
7588;DHT22;3835;48.850;8.938;2023-09-19T10:28:09;21.00;99.90
7588;DHT22;3835;48.850;8.938;2023-09-19T10:30:38;21.00;99.90
7588;DHT22;3835;48.850;8.938;2023-09-19T10:33:11;21.10;99.90
7588;DHT22;3835;48.850;8.938;2023-09-19T10:35:39;21.10;99.90
7588;DHT22;3835;48.850;8.938;2023-09-19T10:38:10;21.20;99.90
7588;DHT22;3835;48.850;8.938;2023-09-19T10:40:38;21.40;99.90
7588;DHT22;3835;48.850;8.938;2023-09-19T10:43:12;21.50;99.90
7588;DHT22;3835;48.850;8.938;2023-09-19T10:45:40;21.70;99.90
7588;DHT22;3835;48.850;8.938;2023-09-19T10:48:07;21.80;99.90
7588;DHT22;3835;48.850;8.938;2023-09-19T10:50:41;21.50;99.90
7588;DHT22;3835;48.850;8.938;2023-09-19T10:53:11;21.40;99.90
7588;DHT22;3835;48.850;8.938;2023-09-19T10:55:39;21.10;99.90
7588;DHT22;3835;48.850;8.938;2023-09-19T10:58:06;21.10;99.90
7588;DHT22;3835;48.850;8.938;2023-09-19T11:00:54;21.00;99.90
7588;DHT22;3835;48.850;8.938;2023-09-19T11:03:22;20.90;99.90
7588;DHT22;3835;48.850;8.938;2023-09-19T11:06:06;20.80;99.90
7588;DHT22;3835;48.850;8.938;2023-09-19T11:08:52;20.60;99.90
7588;DHT22;3835;48.850;8.938;2023-09-19T11:11:45;20.40;99.90
7588;DHT22;3835;48.850;8.938;2023-09-19T11:14:38;20.50;99.90
7588;DHT22;3835;48.850;8.938;2023-09-19T11:17:31;20.20;99.90
7588;DHT22;3835;48.850;8.938;2023-09-19T11:20:18;19.90;99.90
7588;DHT22;3835;48.850;8.938;2023-09-19T11:23:17;19.90;99.90
7588;DHT22;3835;48.850;8.938;2023-09-19T11:25:44;20.20;99.90
7588;DHT22;3835;48.850;8.938;2023-09-19T11:28:34;20.30;99.90
7588;DHT22;3835;48.850;8.938;2023-09-19T11:34:39;20.10;99.90
7588;DHT22;3835;48.850;8.938;2023-09-19T11:40:11;20.10;99.90
7588;DHT22;3835;48.850;8.938;2023-09-19T11:42:42;20.10;99.90
7588;DHT22;3835;48.850;8.938;2023-09-19T11:48:26;20.40;99.90
7588;DHT22;3835;48.850;8.938;2023-09-19T11:50:56;20.70;99.90
7588;DHT22;3835;48.850;8.938;2023-09-19T11:53:31;21.00;99.90
7588;DHT22;3835;48.850;8.938;2023-09-19T11:55:59;21.00;99.90
7588;DHT22;3835;48.850;8.938;2023-09-19T11:58:27;21.30;99.90
7588;DHT22;3835;48.850;8.938;2023-09-19T12:00:55;21.70;99.90
7588;DHT22;3835;48.850;8.938;2023-09-19T12:03:29;21.90;99.90
7588;DHT22;3835;48.850;8.938;2023-09-19T12:05:58;21.80;99.90
7588;DHT22;3835;48.850;8.938;2023-09-19T12:08:28;21.50;99.90
7588;DHT22;3835;48.850;8.938;2023-09-19T12:10:55;21.20;99.90
7588;DHT22;3835;48.850;8.938;2023-09-19T12:13:23;21.10;99.90
7588;DHT22;3835;48.850;8.938;2023-09-19T12:15:51;21.00;99.90
7588;DHT22;3835;48.850;8.938;2023-09-19T12:18:27;20.80;99.90
7588;DHT22;3835;48.850;8.938;2023-09-19T12:20:55;20.80;99.90
7588;DHT22;3835;48.850;8.938;2023-09-19T12:23:24;20.80;99.90
7588;DHT22;3835;48.850;8.938;2023-09-19T12:25:52;21.00;99.90
7588;DHT22;3835;48.850;8.938;2023-09-19T12:28:22;21.10;99.90
7588;DHT22;3835;48.850;8.938;2023-09-19T12:30:51;21.20;99.90
7588;DHT22;3835;48.850;8.938;2023-09-19T12:33:21;21.20;99.90
7588;DHT22;3835;48.850;8.938;2023-09-19T12:35:51;21.00;99.90
7588;DHT22;3835;48.850;8.938;2023-09-19T12:38:26;21.10;99.90
7588;DHT22;3835;48.850;8.938;2023-09-19T12:40:55;21.10;99.90
7588;DHT22;3835;48.850;8.938;2023-09-19T12:43:22;21.00;99.90
7588;DHT22;3835;48.850;8.938;2023-09-19T12:45:49;21.00;99.90
7588;DHT22;3835;48.850;8.938;2023-09-19T12:48:22;21.00;99.90
7588;DHT22;3835;48.850;8.938;2023-09-19T12:51:02;21.00;99.90
7588;DHT22;3835;48.850;8.938;2023-09-19T12:53:33;21.20;99.90
7588;DHT22;3835;48.850;8.938;2023-09-19T12:56:03;21.20;99.90
7588;DHT22;3835;48.850;8.938;2023-09-19T12:58:32;21.20;99.90
7588;DHT22;3835;48.850;8.938;2023-09-19T13:01:00;21.20;99.90
7588;DHT22;3835;48.850;8.938;2023-09-19T13:03:28;21.30;99.90
7588;DHT22;3835;48.850;8.938;2023-09-19T13:05:58;21.20;99.90
7588;DHT22;3835;48.850;8.938;2023-09-19T13:08:27;21.00;99.90
7588;DHT22;3835;48.850;8.938;2023-09-19T13:11:09;20.80;99.90
7588;DHT22;3835;48.850;8.938;2023-09-19T13:13:39;20.50;99.90
7588;DHT22;3835;48.850;8.938;2023-09-19T13:16:06;20.40;99.90
7588;DHT22;3835;48.850;8.938;2023-09-19T13:18:44;20.50;99.90
7588;DHT22;3835;48.850;8.938;2023-09-19T13:21:12;20.50;99.90
7588;DHT22;3835;48.850;8.938;2023-09-19T13:23:49;20.60;99.90
7588;DHT22;3835;48.850;8.938;2023-09-19T13:26:17;20.60;99.90
7588;DHT22;3835;48.850;8.938;2023-09-19T13:28:44;20.70;99.90
7588;DHT22;3835;48.850;8.938;2023-09-19T13:31:13;20.90;99.90
7588;DHT22;3835;48.850;8.938;2023-09-19T13:33:43;21.30;99.90
7588;DHT22;3835;48.850;8.938;2023-09-19T13:36:11;21.20;99.90
7588;DHT22;3835;48.850;8.938;2023-09-19T13:38:40;20.80;99.90
7588;DHT22;3835;48.850;8.938;2023-09-19T13:41:08;20.60;99.90
7588;DHT22;3835;48.850;8.938;2023-09-19T13:43:37;20.60;99.90
7588;DHT22;3835;48.850;8.938;2023-09-19T13:46:05;20.70;99.90
7588;DHT22;3835;48.850;8.938;2023-09-19T13:48:37;20.70;99.90
7588;DHT22;3835;48.850;8.938;2023-09-19T13:51:04;21.00;99.90
7588;DHT22;3835;48.850;8.938;2023-09-19T13:53:31;21.10;99.90
7588;DHT22;3835;48.850;8.938;2023-09-19T13:55:58;20.90;99.90
7588;DHT22;3835;48.850;8.938;2023-09-19T13:58:25;20.80;99.90
7588;DHT22;3835;48.850;8.938;2023-09-19T14:00:56;20.70;99.90
7588;DHT22;3835;48.850;8.938;2023-09-19T14:03:23;20.80;99.90
7588;DHT22;3835;48.850;8.938;2023-09-19T14:05:53;21.00;99.90
7588;DHT22;3835;48.850;8.938;2023-09-19T14:08:20;21.20;99.90
7588;DHT22;3835;48.850;8.938;2023-09-19T14:10:48;21.40;99.90
7588;DHT22;3835;48.850;8.938;2023-09-19T14:13:16;21.50;99.90
7588;DHT22;3835;48.850;8.938;2023-09-19T14:15:44;21.40;99.90
7588;DHT22;3835;48.850;8.938;2023-09-19T14:18:13;21.50;99.90
7588;DHT22;3835;48.850;8.938;2023-09-19T14:20:40;21.40;99.90
7588;DHT22;3835;48.850;8.938;2023-09-19T14:23:08;21.40;99.90
7588;DHT22;3835;48.850;8.938;2023-09-19T14:25:35;21.40;99.90
7588;DHT22;3835;48.850;8.938;2023-09-19T14:28:05;21.30;99.90
7588;DHT22;3835;48.850;8.938;2023-09-19T14:30:34;21.40;99.90
7588;DHT22;3835;48.850;8.938;2023-09-19T14:33:04;21.40;99.90
7588;DHT22;3835;48.850;8.938;2023-09-19T14:35:33;21.50;99.90
7588;DHT22;3835;48.850;8.938;2023-09-19T14:38:03;21.60;99.90
7588;DHT22;3835;48.850;8.938;2023-09-19T14:40:31;21.60;99.90
7588;DHT22;3835;48.850;8.938;2023-09-19T14:42:58;21.60;99.90
7588;DHT22;3835;48.850;8.938;2023-09-19T14:45:24;21.60;99.90
7588;DHT22;3835;48.850;8.938;2023-09-19T14:47:52;21.50;99.90
7588;DHT22;3835;48.850;8.938;2023-09-19T14:50:20;21.50;99.90
7588;DHT22;3835;48.850;8.938;2023-09-19T14:52:49;21.60;99.90
7588;DHT22;3835;48.850;8.938;2023-09-19T14:55:17;21.60;99.90
7588;DHT22;3835;48.850;8.938;2023-09-19T14:57:49;21.60;99.90
7588;DHT22;3835;48.850;8.938;2023-09-19T15:00:17;21.60;99.90
7588;DHT22;3835;48.850;8.938;2023-09-19T15:02:46;21.70;99.90
7588;DHT22;3835;48.850;8.938;2023-09-19T15:05:16;21.70;99.90
7588;DHT22;3835;48.850;8.938;2023-09-19T15:07:44;21.70;99.90
7588;DHT22;3835;48.850;8.938;2023-09-19T15:10:12;22.00;99.90
7588;DHT22;3835;48.850;8.938;2023-09-19T15:12:39;21.90;99.90
7588;DHT22;3835;48.850;8.938;2023-09-19T15:15:07;21.90;99.90
7588;DHT22;3835;48.850;8.938;2023-09-19T15:17:35;21.90;99.90
7588;DHT22;3835;48.850;8.938;2023-09-19T15:20:03;21.90;99.90
7588;DHT22;3835;48.850;8.938;2023-09-19T15:22:33;21.80;99.90
7588;DHT22;3835;48.850;8.938;2023-09-19T15:25:03;21.50;99.90
7588;DHT22;3835;48.850;8.938;2023-09-19T15:27:36;21.30;99.90
7588;DHT22;3835;48.850;8.938;2023-09-19T15:30:05;21.00;99.90
7588;DHT22;3835;48.850;8.938;2023-09-19T15:32:32;20.90;99.90
7588;DHT22;3835;48.850;8.938;2023-09-19T15:34:59;20.80;99.90
7588;DHT22;3835;48.850;8.938;2023-09-19T15:37:27;20.70;99.90
7588;DHT22;3835;48.850;8.938;2023-09-19T15:39:55;20.60;99.90
7588;DHT22;3835;48.850;8.938;2023-09-19T15:42:22;20.50;99.90
7588;DHT22;3835;48.850;8.938;2023-09-19T15:44:51;20.50;99.90
7588;DHT22;3835;48.850;8.938;2023-09-19T15:47:20;20.50;99.90
7588;DHT22;3835;48.850;8.938;2023-09-19T15:49:48;20.50;99.90
7588;DHT22;3835;48.850;8.938;2023-09-19T15:52:17;20.50;99.90
7588;DHT22;3835;48.850;8.938;2023-09-19T15:54:46;20.30;99.90
7588;DHT22;3835;48.850;8.938;2023-09-19T15:57:14;20.40;99.90
7588;DHT22;3835;48.850;8.938;2023-09-19T15:59:42;20.30;99.90
7588;DHT22;3835;48.850;8.938;2023-09-19T16:02:13;20.30;99.90
7588;DHT22;3835;48.850;8.938;2023-09-19T16:04:41;20.30;99.90
7588;DHT22;3835;48.850;8.938;2023-09-19T16:07:10;20.40;99.90
7588;DHT22;3835;48.850;8.938;2023-09-19T16:09:37;20.30;99.90
7588;DHT22;3835;48.850;8.938;2023-09-19T16:12:04;20.40;99.90
7588;DHT22;3835;48.850;8.938;2023-09-19T16:14:31;20.40;99.90
7588;DHT22;3835;48.850;8.938;2023-09-19T16:16:59;20.40;99.90
7588;DHT22;3835;48.850;8.938;2023-09-19T16:19:30;20.40;99.90
7588;DHT22;3835;48.850;8.938;2023-09-19T16:21:57;20.40;99.90
7588;DHT22;3835;48.850;8.938;2023-09-19T16:24:25;20.40;99.90
7588;DHT22;3835;48.850;8.938;2023-09-19T16:26:51;20.30;99.90